Aviation Digital Data Service (ADDS)

Output produced by METARs form (1655 UTC 25 July 2017)
found at http://aviationweather.gov/adds/metars/
 
KJAX 251216Z 2512/2612 24010KT P6SM VCSH SCT040 
     TEMPO 2512/2514 BKN040 
     FM260100 24004KT P6SM FEW040 SCT080 BKN150